sensor_id;sensor_type;location;lat;lon;timestamp;P1;durP1;ratioP1;P2;durP2;ratioP2
39482;SDS011;25682;48.438;1.482;2022-09-17T06:26:09;4.25;;;0.85;;
39482;SDS011;25682;48.438;1.482;2022-09-17T06:28:36;3.67;;;1.13;;
39482;SDS011;25682;48.438;1.482;2022-09-17T06:31:05;10.10;;;1.20;;
39482;SDS011;25682;48.438;1.482;2022-09-17T06:33:32;6.18;;;1.00;;
39482;SDS011;25682;48.438;1.482;2022-09-17T06:38:28;3.03;;;0.80;;
39482;SDS011;25682;48.438;1.482;2022-09-17T06:40:54;2.88;;;1.10;;
39482;SDS011;25682;48.438;1.482;2022-09-17T06:43:20;5.05;;;1.08;;
39482;SDS011;25682;48.438;1.482;2022-09-17T06:45:54;3.60;;;1.23;;
39482;SDS011;25682;48.438;1.482;2022-09-17T06:48:21;6.72;;;1.45;;
39482;SDS011;25682;48.438;1.482;2022-09-17T06:50:47;3.53;;;1.25;;
39482;SDS011;25682;48.438;1.482;2022-09-17T06:53:13;3.15;;;1.20;;
39482;SDS011;25682;48.438;1.482;2022-09-17T06:55:40;8.38;;;1.20;;
39482;SDS011;25682;48.438;1.482;2022-09-17T06:58:06;6.53;;;1.52;;
39482;SDS011;25682;48.438;1.482;2022-09-17T07:00:32;4.88;;;1.33;;
39482;SDS011;25682;48.438;1.482;2022-09-17T07:02:59;9.27;;;1.20;;
39482;SDS011;25682;48.438;1.482;2022-09-17T07:05:26;7.45;;;1.75;;
39482;SDS011;25682;48.438;1.482;2022-09-17T07:07:52;6.90;;;1.52;;
39482;SDS011;25682;48.438;1.482;2022-09-17T07:10:19;7.32;;;1.00;;
39482;SDS011;25682;48.438;1.482;2022-09-17T07:12:47;13.65;;;2.10;;
39482;SDS011;25682;48.438;1.482;2022-09-17T07:15:13;10.65;;;1.45;;
39482;SDS011;25682;48.438;1.482;2022-09-17T07:17:39;10.15;;;1.52;;
39482;SDS011;25682;48.438;1.482;2022-09-17T07:20:07;10.23;;;2.67;;
39482;SDS011;25682;48.438;1.482;2022-09-17T07:22:33;6.18;;;1.85;;
39482;SDS011;25682;48.438;1.482;2022-09-17T07:24:59;9.68;;;1.95;;
39482;SDS011;25682;48.438;1.482;2022-09-17T07:27:26;21.52;;;1.98;;
39482;SDS011;25682;48.438;1.482;2022-09-17T07:29:52;3.72;;;2.03;;
39482;SDS011;25682;48.438;1.482;2022-09-17T07:32:19;9.25;;;1.35;;
39482;SDS011;25682;48.438;1.482;2022-09-17T07:34:45;7.95;;;1.40;;
39482;SDS011;25682;48.438;1.482;2022-09-17T07:37:11;11.95;;;2.15;;
39482;SDS011;25682;48.438;1.482;2022-09-17T07:39:37;11.82;;;1.98;;
39482;SDS011;25682;48.438;1.482;2022-09-17T07:42:03;9.65;;;1.45;;
39482;SDS011;25682;48.438;1.482;2022-09-17T07:44:29;7.88;;;1.40;;
39482;SDS011;25682;48.438;1.482;2022-09-17T07:46:56;11.77;;;2.15;;
39482;SDS011;25682;48.438;1.482;2022-09-17T07:49:22;14.10;;;1.45;;
39482;SDS011;25682;48.438;1.482;2022-09-17T07:51:48;6.30;;;1.63;;
39482;SDS011;25682;48.438;1.482;2022-09-17T07:54:14;4.68;;;1.38;;
39482;SDS011;25682;48.438;1.482;2022-09-17T07:56:40;7.38;;;1.88;;
39482;SDS011;25682;48.438;1.482;2022-09-17T07:59:07;10.00;;;1.55;;
39482;SDS011;25682;48.438;1.482;2022-09-17T08:01:34;5.97;;;1.58;;
39482;SDS011;25682;48.438;1.482;2022-09-17T08:04:00;6.82;;;1.10;;
39482;SDS011;25682;48.438;1.482;2022-09-17T08:06:27;4.43;;;1.30;;
39482;SDS011;25682;48.438;1.482;2022-09-17T08:08:53;3.58;;;1.35;;
39482;SDS011;25682;48.438;1.482;2022-09-17T08:11:21;7.47;;;1.05;;
39482;SDS011;25682;48.438;1.482;2022-09-17T08:13:47;6.28;;;1.48;;
39482;SDS011;25682;48.438;1.482;2022-09-17T08:16:14;6.15;;;1.45;;
39482;SDS011;25682;48.438;1.482;2022-09-17T08:18:40;3.92;;;0.98;;
39482;SDS011;25682;48.438;1.482;2022-09-17T08:21:08;6.00;;;1.25;;
39482;SDS011;25682;48.438;1.482;2022-09-17T08:23:35;4.53;;;1.25;;
39482;SDS011;25682;48.438;1.482;2022-09-17T08:26:02;4.20;;;1.10;;
39482;SDS011;25682;48.438;1.482;2022-09-17T08:28:30;6.35;;;1.35;;
39482;SDS011;25682;48.438;1.482;2022-09-17T08:31:29;4.80;;;1.45;;
39482;SDS011;25682;48.438;1.482;2022-09-17T08:33:48;3.88;;;1.15;;
39482;SDS011;25682;48.438;1.482;2022-09-17T08:36:16;5.00;;;1.13;;
39482;SDS011;25682;48.438;1.482;2022-09-17T08:38:42;3.88;;;1.00;;
39482;SDS011;25682;48.438;1.482;2022-09-17T08:44:21;5.80;;;0.90;;
39482;SDS011;25682;48.438;1.482;2022-09-17T08:46:22;5.03;;;1.10;;
39482;SDS011;25682;48.438;1.482;2022-09-17T08:48:54;3.78;;;1.08;;
39482;SDS011;25682;48.438;1.482;2022-09-17T08:51:36;2.75;;;1.08;;
39482;SDS011;25682;48.438;1.482;2022-09-17T08:56:34;2.78;;;1.05;;
39482;SDS011;25682;48.438;1.482;2022-09-17T08:59:10;3.35;;;1.10;;
39482;SDS011;25682;48.438;1.482;2022-09-17T09:06:54;3.75;;;1.02;;
39482;SDS011;25682;48.438;1.482;2022-09-17T09:09:24;2.08;;;0.95;;
39482;SDS011;25682;48.438;1.482;2022-09-17T09:11:56;2.92;;;0.77;;
39482;SDS011;25682;48.438;1.482;2022-09-17T09:14:30;1.63;;;0.77;;
39482;SDS011;25682;48.438;1.482;2022-09-17T09:16:58;3.85;;;1.10;;
39482;SDS011;25682;48.438;1.482;2022-09-17T09:19:26;1.50;;;0.80;;
39482;SDS011;25682;48.438;1.482;2022-09-17T09:27:23;3.65;;;1.17;;
39482;SDS011;25682;48.438;1.482;2022-09-17T09:32:23;1.17;;;0.73;;
39482;SDS011;25682;48.438;1.482;2022-09-17T09:37:26;2.53;;;0.95;;
39482;SDS011;25682;48.438;1.482;2022-09-17T09:39:54;2.08;;;0.90;;
39482;SDS011;25682;48.438;1.482;2022-09-17T09:42:26;1.00;;;0.55;;
39482;SDS011;25682;48.438;1.482;2022-09-17T09:44:56;3.60;;;1.52;;
39482;SDS011;25682;48.438;1.482;2022-09-17T09:47:34;2.78;;;0.65;;
39482;SDS011;25682;48.438;1.482;2022-09-17T09:50:06;1.42;;;0.50;;
39482;SDS011;25682;48.438;1.482;2022-09-17T09:52:43;1.83;;;0.70;;
39482;SDS011;25682;48.438;1.482;2022-09-17T09:57:46;1.42;;;0.60;;
39482;SDS011;25682;48.438;1.482;2022-09-17T10:00:26;1.13;;;0.60;;
39482;SDS011;25682;48.438;1.482;2022-09-17T10:03:39;2.60;;;1.33;;
39482;SDS011;25682;48.438;1.482;2022-09-17T10:05:39;5.15;;;1.10;;
39482;SDS011;25682;48.438;1.482;2022-09-17T10:08:16;1.35;;;0.68;;
39482;SDS011;25682;48.438;1.482;2022-09-17T10:13:30;2.60;;;0.80;;
39482;SDS011;25682;48.438;1.482;2022-09-17T10:16:04;1.27;;;0.65;;
39482;SDS011;25682;48.438;1.482;2022-09-17T10:18:40;2.67;;;0.63;;
39482;SDS011;25682;48.438;1.482;2022-09-17T10:21:07;1.58;;;0.68;;
39482;SDS011;25682;48.438;1.482;2022-09-17T10:23:43;2.53;;;0.70;;
39482;SDS011;25682;48.438;1.482;2022-09-17T10:26:19;3.90;;;0.80;;
39482;SDS011;25682;48.438;1.482;2022-09-17T10:28:47;1.70;;;0.70;;
39482;SDS011;25682;48.438;1.482;2022-09-17T10:31:15;2.00;;;0.70;;
39482;SDS011;25682;48.438;1.482;2022-09-17T10:34:16;2.15;;;0.55;;
39482;SDS011;25682;48.438;1.482;2022-09-17T10:36:35;1.48;;;0.52;;
39482;SDS011;25682;48.438;1.482;2022-09-17T10:39:17;1.15;;;0.57;;
39482;SDS011;25682;48.438;1.482;2022-09-17T10:41:53;1.70;;;0.60;;
39482;SDS011;25682;48.438;1.482;2022-09-17T10:44:21;2.47;;;0.57;;
39482;SDS011;25682;48.438;1.482;2022-09-17T10:46:48;1.42;;;0.57;;
39482;SDS011;25682;48.438;1.482;2022-09-17T10:49:57;0.90;;;0.50;;
39482;SDS011;25682;48.438;1.482;2022-09-17T10:52:08;2.15;;;0.52;;
39482;SDS011;25682;48.438;1.482;2022-09-17T10:57:01;1.77;;;0.77;;
39482;SDS011;25682;48.438;1.482;2022-09-17T11:09:51;2.55;;;0.75;;
39482;SDS011;25682;48.438;1.482;2022-09-17T11:30:36;1.95;;;0.77;;
39482;SDS011;25682;48.438;1.482;2022-09-17T11:35:47;1.77;;;0.70;;
39482;SDS011;25682;48.438;1.482;2022-09-17T11:38:24;3.58;;;0.93;;
39482;SDS011;25682;48.438;1.482;2022-09-17T11:41:09;1.75;;;0.55;;
39482;SDS011;25682;48.438;1.482;2022-09-17T11:48:34;3.22;;;0.60;;
39482;SDS011;25682;48.438;1.482;2022-09-17T11:51:03;2.10;;;0.70;;
39482;SDS011;25682;48.438;1.482;2022-09-17T11:53:36;1.02;;;0.68;;
39482;SDS011;25682;48.438;1.482;2022-09-17T11:56:16;1.45;;;0.60;;
39482;SDS011;25682;48.438;1.482;2022-09-17T12:01:19;3.30;;;0.60;;
39482;SDS011;25682;48.438;1.482;2022-09-17T12:03:54;2.97;;;0.70;;
39482;SDS011;25682;48.438;1.482;2022-09-17T12:06:24;1.77;;;0.80;;
39482;SDS011;25682;48.438;1.482;2022-09-17T12:08:56;1.40;;;0.70;;
39482;SDS011;25682;48.438;1.482;2022-09-17T12:11:33;1.60;;;0.60;;
39482;SDS011;25682;48.438;1.482;2022-09-17T12:14:18;1.75;;;0.55;;
39482;SDS011;25682;48.438;1.482;2022-09-17T12:16:47;2.13;;;0.57;;
39482;SDS011;25682;48.438;1.482;2022-09-17T12:21:47;2.85;;;0.70;;
39482;SDS011;25682;48.438;1.482;2022-09-17T12:36:55;1.10;;;0.70;;
39482;SDS011;25682;48.438;1.482;2022-09-17T12:52:16;2.95;;;0.70;;
39482;SDS011;25682;48.438;1.482;2022-09-17T13:00:11;0.88;;;0.30;;
39482;SDS011;25682;48.438;1.482;2022-09-17T13:02:40;1.75;;;0.50;;
39482;SDS011;25682;48.438;1.482;2022-09-17T13:13:22;1.67;;;0.80;;
39482;SDS011;25682;48.438;1.482;2022-09-17T13:18:22;2.47;;;0.85;;
39482;SDS011;25682;48.438;1.482;2022-09-17T13:23:29;1.60;;;0.50;;
39482;SDS011;25682;48.438;1.482;2022-09-17T13:25:55;1.15;;;0.40;;
39482;SDS011;25682;48.438;1.482;2022-09-17T13:28:34;2.05;;;0.88;;
39482;SDS011;25682;48.438;1.482;2022-09-17T13:31:01;1.73;;;0.40;;
39482;SDS011;25682;48.438;1.482;2022-09-17T13:33:47;1.98;;;0.65;;
39482;SDS011;25682;48.438;1.482;2022-09-17T13:39:02;1.13;;;0.60;;
39482;SDS011;25682;48.438;1.482;2022-09-17T13:41:29;1.48;;;0.60;;
39482;SDS011;25682;48.438;1.482;2022-09-17T13:43:57;2.20;;;0.85;;
39482;SDS011;25682;48.438;1.482;2022-09-17T13:46:24;1.35;;;0.77;;
39482;SDS011;25682;48.438;1.482;2022-09-17T13:48:56;3.00;;;0.68;;
39482;SDS011;25682;48.438;1.482;2022-09-17T13:54:00;1.02;;;0.47;;
39482;SDS011;25682;48.438;1.482;2022-09-17T13:56:28;1.15;;;0.50;;
39482;SDS011;25682;48.438;1.482;2022-09-17T13:59:03;0.50;;;0.47;;
39482;SDS011;25682;48.438;1.482;2022-09-17T14:07:00;1.00;;;0.63;;
39482;SDS011;25682;48.438;1.482;2022-09-17T14:12:50;1.63;;;0.50;;
39482;SDS011;25682;48.438;1.482;2022-09-17T14:17:58;0.82;;;0.35;;
39482;SDS011;25682;48.438;1.482;2022-09-17T14:20:24;1.83;;;0.40;;
39482;SDS011;25682;48.438;1.482;2022-09-17T14:22:59;1.63;;;0.60;;
39482;SDS011;25682;48.438;1.482;2022-09-17T14:25:29;1.00;;;0.40;;
39482;SDS011;25682;48.438;1.482;2022-09-17T14:27:58;2.17;;;0.60;;
39482;SDS011;25682;48.438;1.482;2022-09-17T14:30:30;2.25;;;0.57;;
39482;SDS011;25682;48.438;1.482;2022-09-17T14:35:30;0.63;;;0.38;;
39482;SDS011;25682;48.438;1.482;2022-09-17T14:38:01;0.77;;;0.40;;
39482;SDS011;25682;48.438;1.482;2022-09-17T14:40:27;0.55;;;0.50;;
39482;SDS011;25682;48.438;1.482;2022-09-17T14:42:55;2.10;;;0.60;;
39482;SDS011;25682;48.438;1.482;2022-09-17T14:45:23;2.08;;;0.70;;
39482;SDS011;25682;48.438;1.482;2022-09-17T14:50:36;0.77;;;0.50;;
39482;SDS011;25682;48.438;1.482;2022-09-17T14:53:06;1.10;;;0.75;;
39482;SDS011;25682;48.438;1.482;2022-09-17T14:55:32;1.88;;;0.60;;
39482;SDS011;25682;48.438;1.482;2022-09-17T14:57:59;1.42;;;0.60;;
39482;SDS011;25682;48.438;1.482;2022-09-17T15:00:36;0.95;;;0.60;;
39482;SDS011;25682;48.438;1.482;2022-09-17T15:03:03;1.58;;;0.50;;
39482;SDS011;25682;48.438;1.482;2022-09-17T15:05:31;0.75;;;0.55;;
39482;SDS011;25682;48.438;1.482;2022-09-17T15:08:05;0.93;;;0.52;;
39482;SDS011;25682;48.438;1.482;2022-09-17T15:10:33;1.70;;;0.73;;
39482;SDS011;25682;48.438;1.482;2022-09-17T15:13:00;1.00;;;0.52;;
39482;SDS011;25682;48.438;1.482;2022-09-17T15:15:26;1.73;;;0.50;;
39482;SDS011;25682;48.438;1.482;2022-09-17T15:17:53;2.28;;;0.75;;
39482;SDS011;25682;48.438;1.482;2022-09-17T15:20:20;1.33;;;0.47;;
39482;SDS011;25682;48.438;1.482;2022-09-17T15:22:49;0.80;;;0.55;;
39482;SDS011;25682;48.438;1.482;2022-09-17T15:25:21;1.45;;;0.55;;
39482;SDS011;25682;48.438;1.482;2022-09-17T15:27:48;0.90;;;0.50;;
39482;SDS011;25682;48.438;1.482;2022-09-17T15:30:15;1.40;;;0.40;;
39482;SDS011;25682;48.438;1.482;2022-09-17T15:32:47;0.52;;;0.40;;
39482;SDS011;25682;48.438;1.482;2022-09-17T15:37:42;3.22;;;0.50;;
39482;SDS011;25682;48.438;1.482;2022-09-17T15:40:22;0.45;;;0.40;;
39482;SDS011;25682;48.438;1.482;2022-09-17T15:42:53;1.83;;;0.73;;
39482;SDS011;25682;48.438;1.482;2022-09-17T15:45:21;1.30;;;0.50;;
39482;SDS011;25682;48.438;1.482;2022-09-17T15:47:54;0.65;;;0.40;;
39482;SDS011;25682;48.438;1.482;2022-09-17T15:52:47;1.05;;;0.50;;
39482;SDS011;25682;48.438;1.482;2022-09-17T15:57:58;1.08;;;0.40;;
39482;SDS011;25682;48.438;1.482;2022-09-17T16:00:24;0.43;;;0.32;;
39482;SDS011;25682;48.438;1.482;2022-09-17T16:02:50;1.13;;;0.50;;
39482;SDS011;25682;48.438;1.482;2022-09-17T16:07:46;0.68;;;0.40;;
39482;SDS011;25682;48.438;1.482;2022-09-17T16:10:13;0.98;;;0.50;;
39482;SDS011;25682;48.438;1.482;2022-09-17T16:12:41;0.50;;;0.35;;
39482;SDS011;25682;48.438;1.482;2022-09-17T16:15:08;1.88;;;0.50;;
39482;SDS011;25682;48.438;1.482;2022-09-17T16:17:44;0.50;;;0.40;;
39482;SDS011;25682;48.438;1.482;2022-09-17T16:20:12;1.02;;;0.40;;
39482;SDS011;25682;48.438;1.482;2022-09-17T16:22:39;0.90;;;0.30;;
39482;SDS011;25682;48.438;1.482;2022-09-17T16:25:06;0.75;;;0.32;;
39482;SDS011;25682;48.438;1.482;2022-09-17T16:27:34;0.98;;;0.52;;
39482;SDS011;25682;48.438;1.482;2022-09-17T16:30:04;0.68;;;0.47;;
39482;SDS011;25682;48.438;1.482;2022-09-17T16:32:33;0.77;;;0.40;;
39482;SDS011;25682;48.438;1.482;2022-09-17T16:34:59;0.90;;;0.50;;
39482;SDS011;25682;48.438;1.482;2022-09-17T16:37:25;1.13;;;0.40;;
39482;SDS011;25682;48.438;1.482;2022-09-17T16:39:51;1.40;;;0.50;;
39482;SDS011;25682;48.438;1.482;2022-09-17T16:42:17;0.85;;;0.43;;
39482;SDS011;25682;48.438;1.482;2022-09-17T16:44:43;0.38;;;0.30;;
39482;SDS011;25682;48.438;1.482;2022-09-17T16:47:09;1.20;;;0.55;;
39482;SDS011;25682;48.438;1.482;2022-09-17T16:49:35;0.60;;;0.50;;
39482;SDS011;25682;48.438;1.482;2022-09-17T16:52:02;0.60;;;0.47;;
39482;SDS011;25682;48.438;1.482;2022-09-17T16:54:28;1.30;;;0.50;;
39482;SDS011;25682;48.438;1.482;2022-09-17T16:56:54;1.40;;;0.50;;
39482;SDS011;25682;48.438;1.482;2022-09-17T16:59:20;0.50;;;0.32;;
39482;SDS011;25682;48.438;1.482;2022-09-17T17:01:46;0.73;;;0.40;;
39482;SDS011;25682;48.438;1.482;2022-09-17T17:04:14;0.73;;;0.52;;
39482;SDS011;25682;48.438;1.482;2022-09-17T17:06:40;1.98;;;0.55;;
39482;SDS011;25682;48.438;1.482;2022-09-17T17:09:06;1.88;;;0.50;;
39482;SDS011;25682;48.438;1.482;2022-09-17T17:11:32;0.38;;;0.30;;
39482;SDS011;25682;48.438;1.482;2022-09-17T17:13:58;0.55;;;0.40;;
39482;SDS011;25682;48.438;1.482;2022-09-17T17:16:29;1.08;;;0.60;;
39482;SDS011;25682;48.438;1.482;2022-09-17T17:18:55;0.63;;;0.30;;
39482;SDS011;25682;48.438;1.482;2022-09-17T17:21:21;1.17;;;0.40;;
39482;SDS011;25682;48.438;1.482;2022-09-17T17:23:47;2.10;;;0.40;;
39482;SDS011;25682;48.438;1.482;2022-09-17T17:26:16;0.60;;;0.30;;
39482;SDS011;25682;48.438;1.482;2022-09-17T17:28:42;1.02;;;0.60;;
39482;SDS011;25682;48.438;1.482;2022-09-17T17:31:08;0.85;;;0.45;;
39482;SDS011;25682;48.438;1.482;2022-09-17T17:33:35;0.60;;;0.30;;
39482;SDS011;25682;48.438;1.482;2022-09-17T17:36:02;1.52;;;0.73;;
39482;SDS011;25682;48.438;1.482;2022-09-17T17:38:29;1.35;;;0.63;;
39482;SDS011;25682;48.438;1.482;2022-09-17T17:41:05;18.88;;;1.20;;
39482;SDS011;25682;48.438;1.482;2022-09-17T17:43:31;17.80;;;1.33;;
39482;SDS011;25682;48.438;1.482;2022-09-17T17:45:57;11.55;;;1.58;;
39482;SDS011;25682;48.438;1.482;2022-09-17T17:48:23;7.82;;;1.10;;
39482;SDS011;25682;48.438;1.482;2022-09-17T17:50:49;2.92;;;0.82;;
39482;SDS011;25682;48.438;1.482;2022-09-17T17:53:15;5.05;;;1.00;;
39482;SDS011;25682;48.438;1.482;2022-09-17T17:55:41;1.58;;;0.50;;
39482;SDS011;25682;48.438;1.482;2022-09-17T17:58:07;7.03;;;1.23;;
39482;SDS011;25682;48.438;1.482;2022-09-17T18:00:33;5.72;;;0.57;;
39482;SDS011;25682;48.438;1.482;2022-09-17T18:02:59;2.17;;;0.60;;
39482;SDS011;25682;48.438;1.482;2022-09-17T18:05:25;2.00;;;0.52;;
39482;SDS011;25682;48.438;1.482;2022-09-17T18:07:51;4.55;;;0.60;;
39482;SDS011;25682;48.438;1.482;2022-09-17T18:10:17;1.77;;;0.65;;
39482;SDS011;25682;48.438;1.482;2022-09-17T18:12:43;2.15;;;0.70;;
39482;SDS011;25682;48.438;1.482;2022-09-17T18:15:14;5.85;;;0.70;;
39482;SDS011;25682;48.438;1.482;2022-09-17T18:17:41;1.65;;;0.52;;
39482;SDS011;25682;48.438;1.482;2022-09-17T18:20:07;3.35;;;0.70;;
39482;SDS011;25682;48.438;1.482;2022-09-17T18:22:33;1.83;;;0.28;;
39482;SDS011;25682;48.438;1.482;2022-09-17T18:24:59;2.70;;;0.50;;
39482;SDS011;25682;48.438;1.482;2022-09-17T18:27:25;2.90;;;0.45;;
39482;SDS011;25682;48.438;1.482;2022-09-17T18:29:51;1.33;;;0.52;;
39482;SDS011;25682;48.438;1.482;2022-09-17T18:32:17;2.90;;;0.82;;
39482;SDS011;25682;48.438;1.482;2022-09-17T18:34:43;1.05;;;0.43;;
39482;SDS011;25682;48.438;1.482;2022-09-17T18:37:09;2.97;;;0.55;;
39482;SDS011;25682;48.438;1.482;2022-09-17T18:39:35;1.45;;;0.68;;
39482;SDS011;25682;48.438;1.482;2022-09-17T18:42:01;2.72;;;0.73;;
39482;SDS011;25682;48.438;1.482;2022-09-17T18:44:27;0.70;;;0.40;;
39482;SDS011;25682;48.438;1.482;2022-09-17T18:46:53;2.10;;;0.80;;
39482;SDS011;25682;48.438;1.482;2022-09-17T18:49:20;3.58;;;0.68;;
39482;SDS011;25682;48.438;1.482;2022-09-17T18:51:46;2.60;;;0.60;;
39482;SDS011;25682;48.438;1.482;2022-09-17T18:54:12;3.83;;;0.60;;
39482;SDS011;25682;48.438;1.482;2022-09-17T18:56:38;0.75;;;0.55;;
39482;SDS011;25682;48.438;1.482;2022-09-17T18:59:05;1.40;;;0.98;;
39482;SDS011;25682;48.438;1.482;2022-09-17T19:01:31;4.50;;;0.70;;
39482;SDS011;25682;48.438;1.482;2022-09-17T19:03:57;2.42;;;0.80;;
39482;SDS011;25682;48.438;1.482;2022-09-17T19:06:24;1.38;;;0.63;;
39482;SDS011;25682;48.438;1.482;2022-09-17T19:08:51;0.90;;;0.60;;
39482;SDS011;25682;48.438;1.482;2022-09-17T19:11:19;1.38;;;0.68;;
39482;SDS011;25682;48.438;1.482;2022-09-17T19:13:45;2.38;;;0.60;;
39482;SDS011;25682;48.438;1.482;2022-09-17T19:16:15;1.33;;;0.73;;
39482;SDS011;25682;48.438;1.482;2022-09-17T19:18:41;3.22;;;0.75;;
39482;SDS011;25682;48.438;1.482;2022-09-17T19:21:11;0.45;;;0.40;;
39482;SDS011;25682;48.438;1.482;2022-09-17T19:23:47;1.13;;;0.52;;
39482;SDS011;25682;48.438;1.482;2022-09-17T19:26:15;1.33;;;0.65;;
39482;SDS011;25682;48.438;1.482;2022-09-17T19:28:41;0.88;;;0.50;;
39482;SDS011;25682;48.438;1.482;2022-09-17T19:31:08;0.40;;;0.32;;
39482;SDS011;25682;48.438;1.482;2022-09-17T19:33:35;0.98;;;0.50;;
39482;SDS011;25682;48.438;1.482;2022-09-17T19:36:02;0.68;;;0.45;;
39482;SDS011;25682;48.438;1.482;2022-09-17T19:38:28;0.55;;;0.50;;
39482;SDS011;25682;48.438;1.482;2022-09-17T19:40:55;1.42;;;0.75;;
39482;SDS011;25682;48.438;1.482;2022-09-17T19:43:21;1.70;;;0.88;;
39482;SDS011;25682;48.438;1.482;2022-09-17T19:45:47;0.60;;;0.50;;
39482;SDS011;25682;48.438;1.482;2022-09-17T19:48:13;1.30;;;0.70;;
39482;SDS011;25682;48.438;1.482;2022-09-17T19:50:48;1.17;;;0.65;;
39482;SDS011;25682;48.438;1.482;2022-09-17T19:53:14;4.43;;;0.57;;
39482;SDS011;25682;48.438;1.482;2022-09-17T19:55:40;1.95;;;0.93;;
39482;SDS011;25682;48.438;1.482;2022-09-17T19:58:06;0.93;;;0.50;;
39482;SDS011;25682;48.438;1.482;2022-09-17T20:00:34;1.23;;;0.60;;
39482;SDS011;25682;48.438;1.482;2022-09-17T20:03:00;1.83;;;0.95;;
39482;SDS011;25682;48.438;1.482;2022-09-17T20:05:27;3.58;;;1.13;;
39482;SDS011;25682;48.438;1.482;2022-09-17T20:07:55;2.15;;;0.75;;
39482;SDS011;25682;48.438;1.482;2022-09-17T20:10:21;5.80;;;0.98;;
39482;SDS011;25682;48.438;1.482;2022-09-17T20:12:47;4.43;;;1.10;;
39482;SDS011;25682;48.438;1.482;2022-09-17T20:15:13;5.78;;;1.13;;
39482;SDS011;25682;48.438;1.482;2022-09-17T20:17:39;8.55;;;1.17;;
39482;SDS011;25682;48.438;1.482;2022-09-17T20:20:05;8.23;;;2.03;;
39482;SDS011;25682;48.438;1.482;2022-09-17T20:22:31;9.18;;;1.85;;
39482;SDS011;25682;48.438;1.482;2022-09-17T20:24:58;10.38;;;1.20;;
39482;SDS011;25682;48.438;1.482;2022-09-17T20:27:24;4.78;;;1.50;;
39482;SDS011;25682;48.438;1.482;2022-09-17T20:29:50;8.07;;;1.40;;
39482;SDS011;25682;48.438;1.482;2022-09-17T20:32:16;6.60;;;1.20;;
39482;SDS011;25682;48.438;1.482;2022-09-17T20:34:42;5.70;;;1.25;;
39482;SDS011;25682;48.438;1.482;2022-09-17T20:37:08;6.28;;;1.40;;
39482;SDS011;25682;48.438;1.482;2022-09-17T20:39:34;9.63;;;1.23;;
39482;SDS011;25682;48.438;1.482;2022-09-17T20:42:00;3.67;;;1.10;;
39482;SDS011;25682;48.438;1.482;2022-09-17T20:44:27;5.88;;;1.00;;
39482;SDS011;25682;48.438;1.482;2022-09-17T20:46:53;8.25;;;1.15;;
39482;SDS011;25682;48.438;1.482;2022-09-17T20:49:20;3.97;;;1.05;;
39482;SDS011;25682;48.438;1.482;2022-09-17T20:51:46;4.18;;;0.75;;
39482;SDS011;25682;48.438;1.482;2022-09-17T20:54:12;7.88;;;1.25;;
39482;SDS011;25682;48.438;1.482;2022-09-17T20:56:38;3.45;;;1.35;;
39482;SDS011;25682;48.438;1.482;2022-09-17T20:59:05;7.60;;;1.27;;
39482;SDS011;25682;48.438;1.482;2022-09-17T21:01:33;6.22;;;1.23;;
39482;SDS011;25682;48.438;1.482;2022-09-17T21:04:01;4.05;;;1.20;;
39482;SDS011;25682;48.438;1.482;2022-09-17T21:06:29;2.53;;;0.88;;
39482;SDS011;25682;48.438;1.482;2022-09-17T21:08:55;7.07;;;0.98;;
39482;SDS011;25682;48.438;1.482;2022-09-17T21:11:24;3.60;;;1.00;;
39482;SDS011;25682;48.438;1.482;2022-09-17T21:13:50;3.10;;;0.82;;
39482;SDS011;25682;48.438;1.482;2022-09-17T21:16:16;7.63;;;1.30;;
39482;SDS011;25682;48.438;1.482;2022-09-17T21:18:43;2.35;;;0.98;;
39482;SDS011;25682;48.438;1.482;2022-09-17T21:21:13;2.85;;;1.25;;
39482;SDS011;25682;48.438;1.482;2022-09-17T21:23:40;7.18;;;1.35;;
39482;SDS011;25682;48.438;1.482;2022-09-17T21:26:07;2.90;;;0.63;;
39482;SDS011;25682;48.438;1.482;2022-09-17T21:28:35;5.82;;;0.80;;
39482;SDS011;25682;48.438;1.482;2022-09-17T21:31:04;5.13;;;1.23;;
39482;SDS011;25682;48.438;1.482;2022-09-17T21:33:31;4.20;;;1.00;;
39482;SDS011;25682;48.438;1.482;2022-09-17T21:36:04;2.72;;;0.80;;
39482;SDS011;25682;48.438;1.482;2022-09-17T21:38:31;1.27;;;0.63;;
39482;SDS011;25682;48.438;1.482;2022-09-17T21:40:58;4.07;;;0.98;;
39482;SDS011;25682;48.438;1.482;2022-09-17T21:43:24;5.35;;;1.58;;
39482;SDS011;25682;48.438;1.482;2022-09-17T21:46:00;3.55;;;0.80;;
39482;SDS011;25682;48.438;1.482;2022-09-17T21:48:27;3.42;;;1.00;;
39482;SDS011;25682;48.438;1.482;2022-09-17T21:50:59;4.07;;;1.02;;
39482;SDS011;25682;48.438;1.482;2022-09-17T21:53:25;3.15;;;1.05;;
39482;SDS011;25682;48.438;1.482;2022-09-17T21:55:51;1.17;;;0.73;;
39482;SDS011;25682;48.438;1.482;2022-09-17T21:58:17;2.80;;;0.93;;
39482;SDS011;25682;48.438;1.482;2022-09-17T22:00:43;1.63;;;0.70;;
39482;SDS011;25682;48.438;1.482;2022-09-17T22:03:09;1.95;;;0.95;;
39482;SDS011;25682;48.438;1.482;2022-09-17T22:05:35;1.65;;;0.68;;
39482;SDS011;25682;48.438;1.482;2022-09-17T22:08:01;3.60;;;0.85;;
39482;SDS011;25682;48.438;1.482;2022-09-17T22:10:27;2.67;;;0.77;;
39482;SDS011;25682;48.438;1.482;2022-09-17T22:12:53;5.25;;;0.82;;
39482;SDS011;25682;48.438;1.482;2022-09-17T22:15:19;2.88;;;0.80;;
39482;SDS011;25682;48.438;1.482;2022-09-17T22:17:45;1.75;;;0.80;;
39482;SDS011;25682;48.438;1.482;2022-09-17T22:20:11;1.98;;;0.77;;
39482;SDS011;25682;48.438;1.482;2022-09-17T22:22:38;2.30;;;0.70;;
39482;SDS011;25682;48.438;1.482;2022-09-17T22:25:04;2.72;;;0.70;;
39482;SDS011;25682;48.438;1.482;2022-09-17T22:27:30;2.17;;;0.63;;
39482;SDS011;25682;48.438;1.482;2022-09-17T22:29:56;1.33;;;0.75;;
39482;SDS011;25682;48.438;1.482;2022-09-17T22:32:22;1.50;;;0.77;;
39482;SDS011;25682;48.438;1.482;2022-09-17T22:34:48;1.00;;;0.60;;
39482;SDS011;25682;48.438;1.482;2022-09-17T22:37:14;0.85;;;0.68;;
39482;SDS011;25682;48.438;1.482;2022-09-17T22:39:40;2.47;;;1.05;;
39482;SDS011;25682;48.438;1.482;2022-09-17T22:42:06;4.53;;;0.70;;
39482;SDS011;25682;48.438;1.482;2022-09-17T22:44:32;2.60;;;0.95;;
39482;SDS011;25682;48.438;1.482;2022-09-17T22:46:58;3.63;;;0.60;;
39482;SDS011;25682;48.438;1.482;2022-09-17T22:49:24;4.38;;;0.70;;
39482;SDS011;25682;48.438;1.482;2022-09-17T22:51:50;2.55;;;0.85;;
39482;SDS011;25682;48.438;1.482;2022-09-17T22:54:17;1.70;;;0.88;;
39482;SDS011;25682;48.438;1.482;2022-09-17T22:56:43;1.33;;;0.70;;
39482;SDS011;25682;48.438;1.482;2022-09-17T22:59:10;1.92;;;0.68;;
39482;SDS011;25682;48.438;1.482;2022-09-17T23:01:37;2.92;;;1.08;;
39482;SDS011;25682;48.438;1.482;2022-09-17T23:04:04;3.00;;;1.10;;
39482;SDS011;25682;48.438;1.482;2022-09-17T23:06:31;1.70;;;0.90;;
39482;SDS011;25682;48.438;1.482;2022-09-17T23:08:58;2.15;;;0.65;;
39482;SDS011;25682;48.438;1.482;2022-09-17T23:11:28;1.75;;;0.75;;
39482;SDS011;25682;48.438;1.482;2022-09-17T23:13:55;3.65;;;1.00;;
39482;SDS011;25682;48.438;1.482;2022-09-17T23:16:22;2.55;;;0.70;;
39482;SDS011;25682;48.438;1.482;2022-09-17T23:18:48;3.17;;;0.80;;
39482;SDS011;25682;48.438;1.482;2022-09-17T23:21:15;4.13;;;0.70;;
39482;SDS011;25682;48.438;1.482;2022-09-17T23:23:42;3.28;;;1.00;;
39482;SDS011;25682;48.438;1.482;2022-09-17T23:26:18;2.67;;;1.10;;
39482;SDS011;25682;48.438;1.482;2022-09-17T23:28:45;3.42;;;0.80;;
39482;SDS011;25682;48.438;1.482;2022-09-17T23:33:37;3.70;;;0.80;;
39482;SDS011;25682;48.438;1.482;2022-09-17T23:36:04;1.52;;;0.73;;
39482;SDS011;25682;48.438;1.482;2022-09-17T23:38:31;5.35;;;0.93;;
39482;SDS011;25682;48.438;1.482;2022-09-17T23:41:05;2.03;;;1.02;;
39482;SDS011;25682;48.438;1.482;2022-09-17T23:43:31;1.92;;;0.88;;
39482;SDS011;25682;48.438;1.482;2022-09-17T23:45:57;0.98;;;0.70;;
39482;SDS011;25682;48.438;1.482;2022-09-17T23:48:23;2.88;;;1.13;;
39482;SDS011;25682;48.438;1.482;2022-09-17T23:50:49;0.45;;;0.45;;